Airfield :
LOGIN :

Register | Disclaimer

   EN    FR    IT 

 










Legend :    VFR   Marginal VFR   IFR   Intensive IFR   Very Intensive IFR
Visi :
Ceiling :
>= 8 km
>= 3000ft
5 to 8 km
1000 to 3000 ft
1500m to 5 km
500 to 1000 ft
800 to 1500m
200 to 500 ft
< 800m
< 200 ft
Symbols :   Thunderstorms  Fog  Heavy snow  Heavy precipitations  Wind > 20 kt
SIGMETs :     Misc.  Thunderstorms  Icing  Turbulence  Mountain Waves  Volcanic Ashes






- Airport Elevation : 46 ft
- IATA code : GPA


LGRX - Araxos

CURRENT METAR :
  • 221620Z 03014KT 9999 FEW025 11/01 Q1025

EXPIRED METARs :
  • 221550Z 03014KT 9999 FEW025 12/01 Q1024 RMK FEW070 FEW180 BLU
  • 221520Z 02014KT 9999 FEW025 12/01 Q1023
  • 221450Z 02015KT 9999 FEW025 12/01 Q1023
  • 221420Z 03014KT 9999 FEW025 SCT070 12/00 Q1023

TAF TAF LGRX
Valid from the 22 at 15:00 until the 23 at 00:00 UTC


221400Z 2215/2224 05012KT 9999 SCT025 BKN080
BECMG 2216/2218 SCT025



MET'MAP, your aeronautical weather chart ! - Copyright ORBIFLY December 2007 - Disclaimer

ORBIFLY MET'MAP TEAM :

Programming & Development : Alexandra Zaïnal
Concept & original design : Baudouin d'Aumeries
Assistance for programming : Marc-Olivier Méhu
Technical & hardware support : Manuel Goepfert

Contact : metmap@orbifly.com




SOURCES & CREDITS :

   NOAA